Time;durP1;ratioP1;P1;durP2;ratioP2;P2;SDS_P1;SDS_P2;PMS_P1;PMS_P2;Temp;Humidity;BMP_temperature;BMP_pressure;BME280_temperature;BME280_humidity;BME280_pressure;Samples;Min_cycle;Max_cycle;Signal;HPM_P1;HPM_P2
2022/04/06 00:01:56;;;;;;;50.40;39.00;;;;;;;8.80;100.00;162865.91;5022096;28;20053;-59
2022/04/06 00:04:23;;;;;;;55.13;37.63;;;;;;;8.83;100.00;162873.94;5024457;28;20081;-59
2022/04/06 00:06:52;;;;;;;60.33;42.03;;;;;;;8.81;100.00;162867.22;5022514;28;20042;-58
2022/04/06 00:09:19;;;;;;;55.15;37.28;;;;;;;8.82;100.00;162871.31;5023110;28;20087;-58
2022/04/06 00:11:44;;;;;;;61.22;39.28;;;;;;;8.85;100.00;162878.03;5022788;28;20041;-58
2022/04/06 00:14:10;;;;;;;60.88;33.50;;;;;;;8.83;100.00;162873.94;5022886;28;20021;-58
2022/04/06 00:16:35;;;;;;;51.60;36.08;;;;;;;8.81;100.00;162868.59;5021851;28;20030;-58
2022/04/06 00:19:00;;;;;;;50.95;32.67;;;;;;;8.85;100.00;162879.38;5024077;28;20036;-58
2022/04/06 00:21:27;;;;;;;67.03;39.28;;;;;;;8.80;100.00;162865.91;5022543;28;20049;-59
2022/04/06 00:23:53;;;;;;;50.03;30.08;;;;;;;8.80;100.00;162865.91;5026016;28;20036;-59
2022/04/06 00:26:18;;;;;;;51.75;33.83;;;;;;;8.74;100.00;162849.72;5020777;28;20045;-59
2022/04/06 00:28:44;;;;;;;48.33;28.98;;;;;;;8.78;100.00;162859.16;5024319;28;20021;-59
2022/04/06 00:31:09;;;;;;;47.92;29.55;;;;;;;8.82;100.00;162871.31;5021202;28;20041;-59
2022/04/06 00:33:34;;;;;;;52.88;27.20;;;;;;;8.84;100.00;162876.66;5022787;28;20017;-59
2022/04/06 00:35:59;;;;;;;50.10;29.10;;;;;;;8.82;100.00;162871.31;5022325;28;20080;-59
2022/04/06 00:38:25;;;;;;;39.33;26.05;;;;;;;8.81;100.00;162868.59;5026880;28;20021;-59
2022/04/06 00:40:50;;;;;;;43.50;26.95;;;;;;;8.77;100.00;162857.78;5021269;28;20014;-58
2022/04/06 00:43:15;;;;;;;47.50;26.10;;;;;;;8.71;100.00;162841.63;5022247;28;20374;-59
2022/04/06 00:45:42;;;;;;;40.22;23.92;;;;;;;8.72;100.00;162844.31;5024218;28;20025;-59
2022/04/06 00:48:09;;;;;;;47.22;25.00;;;;;;;8.65;100.00;162825.44;5020473;28;20079;-58
2022/04/06 00:50:35;;;;;;;37.22;22.45;;;;;;;8.69;100.00;162836.22;5022659;28;20381;-58
2022/04/06 00:53:03;;;;;;;53.00;26.15;;;;;;;8.63;100.00;162820.03;5021734;28;20045;-59
2022/04/06 00:55:36;;;;;;;39.72;22.02;;;;;;;8.67;100.00;162832.19;5021711;28;20037;-59
2022/04/06 00:58:02;;;;;;;41.95;20.70;;;;;;;8.66;100.00;162829.47;5020032;28;20053;-59
2022/04/06 01:00:28;;;;;;;36.55;21.80;;;;;;;8.65;100.00;162826.78;5021286;28;20045;-59
2022/04/06 01:02:54;;;;;;;50.78;24.77;;;;;;;8.62;100.00;162818.72;5022374;28;20048;-59
2022/04/06 01:05:20;;;;;;;31.63;19.70;;;;;;;8.63;100.00;162821.41;5022534;28;20100;-59
2022/04/06 01:07:50;;;;;;;52.22;21.75;;;;;;;8.63;100.00;162820.03;5020217;28;20453;-58
2022/04/06 01:10:16;;;;;;;31.30;18.17;;;;;;;8.65;100.00;162825.44;5022532;28;20093;-59
2022/04/06 01:12:44;;;;;;;43.88;21.95;;;;;;;8.65;100.00;162825.44;5021451;28;20125;-59
2022/04/06 01:15:10;;;;;;;37.95;17.10;;;;;;;8.65;100.00;162825.44;5021761;28;20040;-59
2022/04/06 01:17:36;;;;;;;45.55;21.10;;;;;;;8.66;100.00;162828.16;5022650;28;20481;-59
2022/04/06 01:20:05;;;;;;;33.15;18.80;;;;;;;8.64;100.00;162824.06;5021412;28;20040;-59
2022/04/06 01:22:31;;;;;;;34.75;19.77;;;;;;;8.67;100.00;162830.84;5022132;28;20132;-58
2022/04/06 01:24:56;;;;;;;37.75;19.67;;;;;;;8.61;100.00;162814.63;5022105;28;20473;-58
2022/04/06 01:27:22;;;;;;;32.80;18.42;;;;;;;8.64;100.00;162822.75;5021162;28;20042;-59
2022/04/06 01:29:48;;;;;;;41.65;23.30;;;;;;;8.62;100.00;162817.34;5020994;28;20481;-59
2022/04/06 01:32:16;;;;;;;29.33;16.85;;;;;;;8.60;100.00;162811.97;5020791;28;20071;-58
2022/04/06 01:34:42;;;;;;;41.10;21.58;;;;;;;8.61;100.00;162814.63;5022492;28;20025;-59
2022/04/06 01:37:10;;;;;;;27.15;17.08;;;;;;;8.59;100.00;162809.28;5019616;28;20404;-59
2022/04/06 01:39:36;;;;;;;31.50;19.70;;;;;;;8.56;100.00;162803.88;5022220;28;20413;-60
2022/04/06 01:42:03;;;;;;;34.17;19.38;;;;;;;8.54;100.00;162798.47;5021184;28;20049;-60
2022/04/06 01:44:29;;;;;;;29.42;16.20;;;;;;;8.57;100.00;162806.56;5021125;28;20049;-61
2022/04/06 01:46:54;;;;;;;38.97;18.33;;;;;;;8.57;100.00;162806.56;5020810;28;20492;-61
2022/04/06 01:52:13;;;;;;;31.83;17.58;;;;;;;8.53;100.00;162794.44;5025822;28;20043;-60
2022/04/06 01:54:44;;;;;;;33.03;18.90;;;;;;;8.50;100.00;162787.72;5022383;28;20026;-59
2022/04/06 01:57:09;;;;;;;45.60;19.10;;;;;;;8.53;100.00;162794.44;5019211;28;20493;-58
2022/04/06 01:59:35;;;;;;;48.95;22.38;;;;;;;8.54;100.00;162797.16;5021528;28;20063;-59
2022/04/06 02:02:01;;;;;;;34.22;19.17;;;;;;;8.51;100.00;162790.41;5020888;28;20049;-59
2022/04/06 02:04:26;;;;;;;40.13;18.95;;;;;;;8.53;100.00;162795.75;5019473;28;20033;-59
2022/04/06 02:06:51;;;;;;;26.10;16.38;;;;;;;8.56;100.00;162802.53;5022794;28;20084;-59
2022/04/06 02:09:18;;;;;;;47.30;21.13;;;;;;;8.53;100.00;162795.75;5021178;28;20029;-59
2022/04/06 02:11:44;;;;;;;27.90;15.63;;;;;;;8.54;100.00;162798.47;5020578;28;20048;-59
2022/04/06 02:14:09;;;;;;;34.53;18.35;;;;;;;8.54;100.00;162798.47;5020393;28;20026;-59
2022/04/06 02:16:36;;;;;;;30.00;16.73;;;;;;;8.52;100.00;162791.72;5020067;28;20036;-59
2022/04/06 02:19:01;;;;;;;25.45;16.05;;;;;;;8.53;100.00;162794.44;5021929;28;20026;-59
2022/04/06 02:21:27;;;;;;;40.25;16.98;;;;;;;8.54;100.00;162798.47;5020327;28;20115;-59
2022/04/06 02:23:52;;;;;;;33.38;17.98;;;;;;;8.53;100.00;162795.75;5020623;28;20030;-59
2022/04/06 02:26:18;;;;;;;34.42;20.67;;;;;;;8.54;100.00;162797.16;5019111;28;20038;-59
2022/04/06 02:28:43;;;;;;;48.10;21.40;;;;;;;8.53;100.00;162795.75;5022248;28;20036;-59
2022/04/06 02:31:08;;;;;;;32.50;18.25;;;;;;;8.52;100.00;162791.72;5018720;28;20041;-59
2022/04/06 02:33:34;;;;;;;33.80;19.73;;;;;;;8.53;100.00;162795.75;5020875;28;20018;-59
2022/04/06 02:35:59;;;;;;;28.20;16.15;;;;;;;8.50;100.00;162787.72;5020141;28;20526;-58
2022/04/06 02:38:25;;;;;;;31.38;19.92;;;;;;;8.52;100.00;162793.09;5022378;28;20512;-59
2022/04/06 02:40:50;;;;;;;36.95;18.23;;;;;;;8.52;100.00;162793.09;5020034;28;20021;-58
2022/04/06 02:43:15;;;;;;;30.48;16.73;;;;;;;8.47;100.00;162779.59;5020935;28;20018;-59
2022/04/06 02:45:41;;;;;;;34.25;20.50;;;;;;;8.51;100.00;162790.41;5020048;28;20017;-59
2022/04/06 02:48:06;;;;;;;52.58;20.42;;;;;;;8.50;100.00;162786.31;5020109;28;20037;-60
2022/04/06 02:50:32;;;;;;;59.85;17.38;;;;;;;8.53;100.00;162794.44;5022938;28;20380;-60
2022/04/06 02:52:57;;;;;;;40.40;19.40;;;;;;;8.48;100.00;162782.28;5022764;28;20056;-61
2022/04/06 02:55:23;;;;;;;35.45;19.23;;;;;;;8.50;100.00;162787.72;5021212;28;20037;-60
2022/04/06 02:57:48;;;;;;;35.50;19.48;;;;;;;8.50;100.00;162787.72;5018406;28;20038;-60
2022/04/06 03:00:14;;;;;;;32.58;16.40;;;;;;;8.52;100.00;162793.09;5020568;28;20439;-60
2022/04/06 03:02:39;;;;;;;31.90;16.08;;;;;;;8.50;100.00;162786.31;5019466;28;20038;-59
2022/04/06 03:05:05;;;;;;;27.88;17.25;;;;;;;8.52;100.00;162793.09;5019831;28;20383;-59
2022/04/06 03:07:30;;;;;;;34.88;17.80;;;;;;;8.44;100.00;162771.50;5022040;28;20068;-59
2022/04/06 03:09:56;;;;;;;27.45;16.52;;;;;;;8.46;100.00;162776.84;5020411;28;20385;-59
2022/04/06 03:12:21;;;;;;;34.05;18.83;;;;;;;8.45;100.00;162774.13;5018040;28;20114;-60
2022/04/06 03:14:47;;;;;;;36.58;17.60;;;;;;;8.44;100.00;162771.50;5021789;28;20025;-58
2022/04/06 03:17:15;;;;;;;27.88;15.77;;;;;;;8.42;100.00;162767.41;5020721;28;20041;-58
2022/04/06 03:19:41;;;;;;;28.92;13.82;;;;;;;8.39;100.00;162757.97;5024144;28;20045;-60
2022/04/06 03:22:08;;;;;;;29.23;14.63;;;;;;;8.44;100.00;162771.50;5024473;28;20049;-61
2022/04/06 03:24:33;;;;;;;26.30;13.88;;;;;;;8.40;100.00;162762.06;5024628;28;20036;-61
2022/04/06 03:26:58;;;;;;;26.50;14.63;;;;;;;8.41;100.00;162764.69;5023559;28;20429;-60
2022/04/06 03:29:24;;;;;;;30.40;16.90;;;;;;;8.30;100.00;162733.75;5023073;28;20065;-61
2022/04/06 03:31:49;;;;;;;36.22;18.00;;;;;;;8.36;100.00;162751.25;5023221;28;20029;-61
2022/04/06 03:34:14;;;;;;;29.58;15.65;;;;;;;8.36;100.00;162749.91;5023902;28;20022;-62
2022/04/06 03:36:40;;;;;;;33.88;18.65;;;;;;;8.36;100.00;162749.91;5025624;28;20038;-61
2022/04/06 03:39:05;;;;;;;45.65;16.45;;;;;;;8.34;100.00;162745.84;5022885;28;20018;-61
2022/04/06 03:41:30;;;;;;;39.25;18.30;;;;;;;8.29;100.00;162731.03;5023293;28;20053;-61
2022/04/06 03:43:56;;;;;;;37.75;14.02;;;;;;;8.29;100.00;162731.03;5024269;28;20022;-61
2022/04/06 03:46:21;;;;;;;27.15;14.05;;;;;;;8.29;100.00;162731.03;5021733;28;20037;-61
2022/04/06 03:48:46;;;;;;;30.73;13.80;;;;;;;8.28;100.00;162729.66;5025259;28;20037;-61
2022/04/06 03:51:12;;;;;;;24.50;12.55;;;;;;;8.28;100.00;162728.34;5022784;28;20037;-61
2022/04/06 03:53:37;;;;;;;31.52;13.90;;;;;;;8.23;100.00;162717.53;5023845;28;20029;-61
2022/04/06 03:56:03;;;;;;;27.00;13.57;;;;;;;8.24;100.00;162718.91;5021725;28;20026;-60
2022/04/06 03:58:29;;;;;;;28.48;12.25;;;;;;;8.28;100.00;162728.34;5024681;28;20052;-61
2022/04/06 04:00:54;;;;;;;25.85;11.95;;;;;;;8.21;100.00;162712.19;5021636;28;20092;-60
2022/04/06 04:03:19;;;;;;;27.85;11.93;;;;;;;8.22;100.00;162713.50;5026888;28;20028;-61
2022/04/06 04:05:45;;;;;;;37.70;13.70;;;;;;;8.21;100.00;162710.81;5022785;28;20018;-61
2022/04/06 04:08:10;;;;;;;27.33;10.38;;;;;;;8.20;100.00;162709.47;5022715;28;20040;-61
2022/04/06 04:10:36;;;;;;;29.42;11.32;;;;;;;8.20;100.00;162709.47;5023674;28;20465;-58
2022/04/06 04:13:02;;;;;;;18.15;10.43;;;;;;;8.13;100.00;162690.63;5025038;28;20041;-57
2022/04/06 04:15:27;;;;;;;23.98;12.15;;;;;;;8.17;100.00;162701.38;5027444;28;20029;-58
2022/04/06 04:17:52;;;;;;;21.05;10.23;;;;;;;8.13;100.00;162690.63;5022561;28;20057;-58
2022/04/06 04:20:18;;;;;;;24.80;11.48;;;;;;;8.16;100.00;162698.66;5023339;28;20037;-58
2022/04/06 04:22:43;;;;;;;24.52;11.75;;;;;;;8.13;100.00;162690.63;5021082;28;20042;-58
2022/04/06 04:25:10;;;;;;;23.10;9.85;;;;;;;8.15;100.00;162696.00;5023519;28;20079;-58
2022/04/06 04:27:36;;;;;;;23.48;11.45;;;;;;;8.08;100.00;162677.09;5021111;28;20037;-58
2022/04/06 04:30:02;;;;;;;29.45;13.13;;;;;;;8.08;100.00;162677.09;5022649;28;20028;-58
2022/04/06 04:32:27;;;;;;;22.25;12.20;;;;;;;8.09;100.00;162681.19;5022256;28;20080;-58
2022/04/06 04:34:52;;;;;;;20.52;8.23;;;;;;;8.08;100.00;162677.09;5028419;28;20029;-58
2022/04/06 04:37:18;;;;;;;14.20;8.35;;;;;;;8.14;100.00;162693.31;5031755;28;20050;-58
2022/04/06 04:39:43;;;;;;;28.88;9.80;;;;;;;8.03;100.00;162663.63;5031364;28;20026;-58
2022/04/06 04:42:08;;;;;;;15.40;8.63;;;;;;;8.08;100.00;162677.09;5026102;28;20076;-58
2022/04/06 04:44:34;;;;;;;20.85;9.13;;;;;;;8.08;100.00;162678.47;5026810;28;20680;-58
2022/04/06 04:47:00;;;;;;;14.20;7.35;;;;;;;8.08;100.00;162677.09;5020689;28;20082;-58
2022/04/06 04:49:25;;;;;;;22.30;9.38;;;;;;;8.03;100.00;162663.63;5022681;28;20489;-58
2022/04/06 04:51:50;;;;;;;22.10;10.48;;;;;;;8.03;100.00;162665.00;5022513;28;20034;-58
2022/04/06 04:54:17;;;;;;;16.40;6.95;;;;;;;8.03;100.00;162663.63;5021481;28;20041;-58
2022/04/06 04:56:42;;;;;;;41.15;14.00;;;;;;;8.04;100.00;162667.66;5021773;28;20119;-58
2022/04/06 04:59:08;;;;;;;13.30;7.10;;;;;;;8.08;100.00;162677.09;5023285;28;20022;-57
2022/04/06 05:01:33;;;;;;;18.42;8.63;;;;;;;8.05;100.00;162669.03;5019683;28;20050;-58
2022/04/06 05:03:58;;;;;;;18.80;7.55;;;;;;;7.99;100.00;162652.88;5023512;28;20024;-58
2022/04/06 05:06:24;;;;;;;17.60;8.38;;;;;;;8.07;100.00;162674.44;5021262;28;20065;-58
2022/04/06 05:08:49;;;;;;;21.73;8.80;;;;;;;8.05;100.00;162670.38;5015968;28;20413;-57
2022/04/06 05:11:15;;;;;;;15.50;7.80;;;;;;;8.00;100.00;162655.59;5010145;28;20157;-58
2022/04/06 05:13:41;;;;;;;17.70;7.32;;;;;;;8.02;100.00;162662.31;5013349;28;20380;-58
2022/04/06 05:16:06;;;;;;;19.65;8.80;;;;;;;7.99;100.00;162652.88;5011302;28;20040;-57
2022/04/06 05:18:31;;;;;;;16.63;7.25;;;;;;;8.01;100.00;162658.22;5012791;28;20033;-58
2022/04/06 05:20:57;;;;;;;22.95;8.00;;;;;;;7.93;100.00;162639.38;5010945;28;20060;-57
2022/04/06 05:23:23;;;;;;;14.73;7.35;;;;;;;8.04;100.00;162666.34;5012746;28;20108;-58
2022/04/06 05:25:48;;;;;;;20.80;9.68;;;;;;;8.03;100.00;162665.00;5012931;28;20488;-57
2022/04/06 05:28:15;;;;;;;14.25;7.13;;;;;;;8.04;100.00;162666.34;5011280;28;20413;-58
2022/04/06 05:30:41;;;;;;;15.55;6.40;;;;;;;8.02;100.00;162660.94;5012755;28;20025;-57
2022/04/06 05:33:07;;;;;;;22.15;6.47;;;;;;;8.01;100.00;162658.22;5011431;28;20046;-58
2022/04/06 05:35:32;;;;;;;14.70;7.07;;;;;;;8.02;100.00;162660.94;5012535;28;20030;-58
2022/04/06 05:37:58;;;;;;;23.60;6.40;;;;;;;7.98;100.00;162651.50;5011008;28;20069;-58
2022/04/06 05:40:24;;;;;;;13.70;6.57;;;;;;;8.01;100.00;162658.22;5011431;28;20029;-58
2022/04/06 05:42:49;;;;;;;15.30;6.28;;;;;;;8.01;100.00;162658.22;5011199;28;20038;-58
2022/04/06 05:45:15;;;;;;;21.10;8.07;;;;;;;8.03;100.00;162665.00;5012014;28;20034;-58
2022/04/06 05:47:42;;;;;;;9.38;6.28;;;;;;;8.03;100.00;162663.63;5011088;28;20042;-58
2022/04/06 05:50:09;;;;;;;12.93;8.75;;;;;;;8.04;100.00;162666.34;5012621;28;20408;-58
2022/04/06 05:52:34;;;;;;;9.00;5.88;;;;;;;8.05;100.00;162669.03;5010391;28;20060;-59
2022/04/06 05:55:00;;;;;;;16.83;7.50;;;;;;;8.03;100.00;162663.63;5012533;28;20026;-58
2022/04/06 05:57:25;;;;;;;16.27;5.90;;;;;;;8.06;100.00;162671.75;5010374;28;20038;-58
2022/04/06 05:59:51;;;;;;;12.05;6.40;;;;;;;8.07;100.00;162674.44;5011877;28;20061;-58
2022/04/06 06:02:16;;;;;;;14.45;5.63;;;;;;;8.11;100.00;162685.19;5010586;28;20088;-58
2022/04/06 06:04:42;;;;;;;15.48;7.45;;;;;;;8.14;100.00;162693.31;5012483;28;20044;-58
2022/04/06 06:07:08;;;;;;;19.13;8.50;;;;;;;8.12;100.00;162687.91;5010585;28;20124;-58
2022/04/06 06:09:34;;;;;;;10.75;5.80;;;;;;;8.15;100.00;162696.00;5011943;28;20512;-58
2022/04/06 06:12:00;;;;;;;15.98;5.95;;;;;;;8.17;100.00;162701.38;5010593;28;20034;-58
2022/04/06 06:14:26;;;;;;;15.43;6.80;;;;;;;8.23;100.00;162716.22;5011704;28;20044;-58
2022/04/06 06:16:52;;;;;;;6.95;4.88;;;;;;;8.15;100.00;162696.00;5010465;28;20405;-58
2022/04/06 06:19:17;;;;;;;9.77;5.53;;;;;;;8.25;100.00;162721.63;5011853;28;20034;-58
2022/04/06 06:21:43;;;;;;;26.63;7.90;;;;;;;8.22;100.00;162713.50;5010035;28;20531;-58
2022/04/06 06:24:08;;;;;;;20.55;6.47;;;;;;;8.29;100.00;162731.03;5012145;28;20359;-56
2022/04/06 06:26:35;;;;;;;18.38;8.60;;;;;;;8.28;100.00;162728.34;5008856;28;20040;-56
2022/04/06 06:29:00;;;;;;;16.80;6.18;;;;;;;8.29;100.00;162732.38;5010767;28;20064;-55
2022/04/06 06:31:27;;;;;;;10.70;4.60;;;;;;;8.28;100.00;162729.66;5009894;28;20054;-56
2022/04/06 06:33:53;;;;;;;19.50;5.50;;;;;;;8.23;100.00;162717.53;5011047;28;20065;-55
2022/04/06 06:36:18;;;;;;;13.82;7.18;;;;;;;8.24;100.00;162720.25;5009463;28;20034;-55
2022/04/06 06:38:44;;;;;;;25.45;9.80;;;;;;;8.26;100.00;162724.31;5011936;28;20072;-56
2022/04/06 06:41:09;;;;;;;13.85;7.32;;;;;;;8.34;100.00;162745.84;5010232;28;20092;-55
2022/04/06 06:43:34;;;;;;;18.52;6.68;;;;;;;8.38;100.00;162755.25;5011250;28;20041;-56
2022/04/06 06:46:00;;;;;;;21.13;6.05;;;;;;;8.41;100.00;162763.38;5010252;28;20034;-55
2022/04/06 06:48:25;;;;;;;11.70;5.60;;;;;;;8.65;100.00;162825.44;5011304;28;20462;-56
2022/04/06 06:50:50;;;;;;;19.98;6.43;;;;;;;8.83;100.00;162873.94;5009755;28;20025;-55
2022/04/06 06:53:16;;;;;;;11.60;6.88;;;;;;;9.01;100.00;162919.81;5010869;28;20511;-56
2022/04/06 06:55:41;;;;;;;15.15;6.50;;;;;;;9.02;100.00;162922.53;5011528;28;20080;-56
2022/04/06 06:58:07;;;;;;;17.67;6.82;;;;;;;9.06;100.00;162933.28;5010012;28;20049;-55
2022/04/06 07:00:32;;;;;;;13.57;7.13;;;;;;;9.05;100.00;162931.97;5010655;28;20046;-56
2022/04/06 07:02:59;;;;;;;21.30;8.65;;;;;;;9.03;100.00;162925.22;5009839;28;20505;-55
2022/04/06 07:05:25;;;;;;;17.52;8.30;;;;;;;9.03;100.00;162925.22;5011487;28;20029;-56
2022/04/06 07:07:55;;;;;;;13.25;6.82;;;;;;;9.03;100.00;162925.22;5009492;28;20124;-56
2022/04/06 07:10:22;;;;;;;16.92;7.65;;;;;;;9.01;100.00;162919.81;5011184;28;20026;-56
2022/04/06 07:12:49;;;;;;;15.23;8.05;;;;;;;8.89;100.00;162890.19;5009754;28;20038;-55
2022/04/06 07:15:14;;;;;;;23.48;10.40;;;;;;;8.88;100.00;162886.09;5010350;28;20060;-56
2022/04/06 07:17:39;;;;;;;21.67;10.13;;;;;;;8.82;100.00;162871.31;5009866;28;20497;-56
2022/04/06 07:20:05;;;;;;;16.10;7.15;;;;;;;8.84;100.00;162876.66;5011852;28;20026;-55
2022/04/06 07:22:31;;;;;;;18.98;8.20;;;;;;;8.85;100.00;162879.38;4995529;28;20046;-55
2022/04/06 07:24:56;;;;;;;13.30;8.18;;;;;;;8.76;100.00;162855.09;4991434;28;20088;-55
2022/04/06 07:27:21;;;;;;;22.60;9.15;;;;;;;8.69;100.00;162836.22;4992505;28;20089;-57
2022/04/06 07:29:47;;;;;;;25.42;10.52;;;;;;;8.76;100.00;162853.75;5008038;28;20026;-56
2022/04/06 07:32:12;;;;;;;27.52;11.77;;;;;;;8.69;100.00;162837.59;5008921;28;20453;-56
2022/04/06 07:34:38;;;;;;;22.58;9.80;;;;;;;8.65;100.00;162825.44;4994916;28;20026;-55
2022/04/06 07:37:03;;;;;;;20.02;10.13;;;;;;;8.61;100.00;162814.63;4989712;28;20038;-55
2022/04/06 07:39:28;;;;;;;14.35;8.75;;;;;;;8.63;100.00;162820.03;4991244;28;20528;-55
2022/04/06 07:41:57;;;;;;;17.00;8.52;;;;;;;8.71;100.00;162841.63;4989778;28;20057;-56
2022/04/06 07:44:25;;;;;;;26.75;8.27;;;;;;;8.67;100.00;162830.84;4996943;28;20535;-56
2022/04/06 07:46:51;;;;;;;12.13;9.23;;;;;;;8.66;100.00;162828.16;5009448;28;20060;-56
2022/04/06 07:49:19;;;;;;;14.23;8.13;;;;;;;8.64;100.00;162822.75;5011022;28;20041;-55
2022/04/06 07:51:45;;;;;;;15.35;7.05;;;;;;;8.69;100.00;162836.22;5009008;28;20030;-56
2022/04/06 07:54:11;;;;;;;13.43;9.18;;;;;;;8.66;100.00;162828.16;5010685;28;20026;-56
2022/04/06 07:56:37;;;;;;;18.83;7.00;;;;;;;8.63;100.00;162820.03;5009405;28;20034;-56
2022/04/06 07:59:02;;;;;;;31.20;8.38;;;;;;;8.70;100.00;162840.28;5010660;28;20033;-55
2022/04/06 08:01:28;;;;;;;15.77;6.25;;;;;;;8.69;100.00;162837.59;5008934;28;20042;-56
2022/04/06 08:03:53;;;;;;;13.70;7.50;;;;;;;8.67;100.00;162830.84;5012967;28;20409;-55
2022/04/06 08:06:19;;;;;;;12.07;6.38;;;;;;;8.71;100.00;162841.63;5012531;28;20092;-55
2022/04/06 08:08:44;;;;;;;21.17;9.63;;;;;;;8.70;100.00;162838.91;5014722;28;20424;-56
2022/04/06 08:11:10;;;;;;;15.00;7.05;;;;;;;8.72;100.00;162844.31;5012990;28;20064;-55
2022/04/06 08:13:35;;;;;;;14.30;5.60;;;;;;;8.80;100.00;162865.91;5013451;28;20025;-55
2022/04/06 08:16:00;;;;;;;10.75;5.43;;;;;;;8.79;100.00;162863.19;5012597;28;20022;-55
2022/04/06 08:18:26;;;;;;;7.97;4.20;;;;;;;8.84;100.00;162875.34;5013664;28;20386;-55
2022/04/06 08:20:52;;;;;;;9.05;4.82;;;;;;;8.87;100.00;162884.78;5012357;28;20026;-55
2022/04/06 08:23:30;;;;;;;6.50;4.63;;;;;;;9.02;100.00;162922.53;5013802;28;20362;-55
2022/04/06 08:25:55;;;;;;;5.93;4.15;;;;;;;9.06;100.00;162933.28;5012777;28;20080;-55
2022/04/06 08:28:20;;;;;;;9.80;4.63;;;;;;;9.26;100.00;162984.56;5010896;28;20026;-55
2022/04/06 08:30:47;;;;;;;10.27;5.72;;;;;;;9.39;100.00;163018.25;5011403;28;20025;-55
2022/04/06 08:33:14;;;;;;;14.02;6.65;;;;;;;9.41;100.00;163025.03;5011789;28;20037;-55
2022/04/06 08:35:41;;;;;;;17.52;5.60;;;;;;;9.50;100.00;163047.94;5013157;28;20018;-55
2022/04/06 08:38:10;;;;;;;10.35;4.05;;;;;;;9.65;100.00;163087.03;5012285;28;20045;-55
2022/04/06 08:40:42;;;;;;;7.95;3.40;;;;;;;9.83;100.00;163135.63;5013548;28;20022;-56
2022/04/06 08:43:10;;;;;;;7.50;4.28;;;;;;;9.93;100.00;163159.94;5011680;28;20119;-55
2022/04/06 08:45:45;;;;;;;6.90;3.97;;;;;;;9.86;100.00;163141.03;5013722;28;20437;-55
2022/04/06 08:48:11;;;;;;;6.78;3.78;;;;;;;10.04;100.00;163189.59;5012173;28;20041;-55
2022/04/06 08:50:37;;;;;;;12.25;4.95;;;;;;;10.07;100.00;163196.31;5013385;28;20461;-55
2022/04/06 08:53:05;;;;;;;7.47;3.75;;;;;;;10.04;100.00;163188.25;5012073;28;20493;-55
2022/04/06 08:55:31;;;;;;;8.18;3.83;;;;;;;9.96;100.00;163168.00;5013436;28;20022;-56
2022/04/06 08:57:57;;;;;;;13.48;4.70;;;;;;;9.69;100.00;163099.19;5011825;28;20046;-56
2022/04/06 09:00:23;;;;;;;9.55;4.05;;;;;;;9.69;100.00;163097.84;5013055;28;20401;-55
2022/04/06 09:02:48;;;;;;;16.13;4.25;;;;;;;9.53;100.00;163056.06;5011951;28;20046;-55
2022/04/06 09:05:14;;;;;;;8.35;4.32;;;;;;;9.47;100.00;163041.22;5012932;28;20033;-56
2022/04/06 09:07:40;;;;;;;12.93;4.35;;;;;;;9.36;100.00;163011.50;5011903;28;20042;-55
2022/04/06 09:10:06;;;;;;;11.70;5.00;;;;;;;9.44;100.00;163031.75;5013457;28;20087;-55
2022/04/06 09:12:31;;;;;;;12.98;5.10;;;;;;;9.41;100.00;163023.66;5011177;28;20509;-55
2022/04/06 09:15:09;;;;;;;11.70;3.58;;;;;;;9.41;100.00;163025.03;5012983;28;20026;-56
2022/04/06 09:17:45;;;;;;;8.07;3.50;;;;;;;9.44;100.00;163033.09;5011550;28;20045;-55
2022/04/06 09:20:11;;;;;;;7.95;3.80;;;;;;;9.31;100.00;162998.03;5012688;28;20026;-55
2022/04/06 09:22:37;;;;;;;8.55;3.13;;;;;;;9.40;100.00;163022.31;5011668;28;20046;-56
2022/04/06 09:25:05;;;;;;;8.02;4.00;;;;;;;9.46;100.00;163038.50;5013227;28;20036;-56
2022/04/06 09:27:31;;;;;;;14.05;5.07;;;;;;;9.59;100.00;163070.84;5011046;28;20103;-56
2022/04/06 09:29:57;;;;;;;10.98;4.97;;;;;;;9.46;100.00;163038.50;5013122;28;20033;-56
2022/04/06 09:32:23;;;;;;;8.48;3.28;;;;;;;9.73;100.00;163108.63;5007864;28;20042;-55
2022/04/06 09:34:49;;;;;;;14.15;4.72;;;;;;;9.79;100.00;163123.47;5011376;28;20033;-55
2022/04/06 09:37:23;;;;;;;14.32;5.45;;;;;;;9.83;100.00;163135.63;5010755;28;20521;-56
2022/04/06 09:39:49;;;;;;;7.32;3.83;;;;;;;9.82;100.00;163132.94;4997154;28;20038;-56
2022/04/06 09:42:22;;;;;;;17.98;4.88;;;;;;;9.86;100.00;163142.38;5002578;28;20049;-56
2022/04/06 09:47:39;;;;;;;16.50;6.57;;;;;;;9.61;100.00;163076.28;5010952;28;20547;-55
2022/04/06 09:50:09;;;;;;;7.78;5.20;;;;;;;9.58;100.00;163068.16;5012255;28;20393;-55
2022/04/06 09:52:38;;;;;;;15.00;7.72;;;;;;;9.40;100.00;163022.31;5024873;28;20034;-55
2022/04/06 09:55:07;;;;;;;20.95;7.10;;;;;;;9.21;100.00;162972.41;5032284;28;20034;-55
2022/04/06 09:57:41;;;;;;;27.25;7.53;;;;;;;9.23;100.00;162976.44;5029992;28;20041;-55
2022/04/06 10:00:09;;;;;;;16.30;8.55;;;;;;;9.32;100.00;163000.75;5031868;28;20472;-56
2022/04/06 10:02:35;;;;;;;13.18;6.38;;;;;;;9.25;100.00;162981.84;5030090;28;20049;-55
2022/04/06 10:05:04;;;;;;;13.57;6.82;;;;;;;9.11;100.00;162946.81;5031966;28;20027;-55
2022/04/06 10:07:29;;;;;;;14.50;9.82;;;;;;;9.08;100.00;162938.69;5029375;28;20049;-55
2022/04/06 10:09:56;;;;;;;22.67;9.30;;;;;;;8.98;100.00;162911.72;5031265;28;20087;-56
2022/04/06 10:12:23;;;;;;;9.32;7.03;;;;;;;8.97;100.00;162909.06;5016736;28;20050;-55
2022/04/06 10:14:50;;;;;;;12.68;8.05;;;;;;;8.85;100.00;162879.38;5011835;28;20030;-55
2022/04/06 10:17:17;;;;;;;9.55;7.68;;;;;;;8.65;100.00;162825.44;5010348;28;20129;-55
2022/04/06 10:19:47;;;;;;;24.10;8.93;;;;;;;8.54;100.00;162797.16;5011325;28;20108;-56
2022/04/06 10:22:21;;;;;;;18.50;10.68;;;;;;;8.51;100.00;162790.41;5010204;28;20061;-56
2022/04/06 10:25:09;;;;;;;18.60;9.75;;;;;;;8.39;100.00;162757.97;5012253;28;20072;-55
2022/04/06 10:27:41;;;;;;;12.38;10.07;;;;;;;8.29;100.00;162731.03;4998831;28;20050;-56
2022/04/06 10:30:13;;;;;;;22.45;13.45;;;;;;;8.19;100.00;162706.78;4992072;28;20381;-55
2022/04/06 10:32:43;;;;;;;17.15;11.32;;;;;;;8.17;100.00;162700.03;5008620;28;20041;-55
2022/04/06 10:35:31;;;;;;;16.65;10.77;;;;;;;8.11;100.00;162685.19;5010123;28;20022;-55
2022/04/06 10:37:56;;;;;;;13.88;10.82;;;;;;;8.07;100.00;162675.78;5010262;28;20046;-55
2022/04/06 10:40:25;;;;;;;19.25;11.63;;;;;;;8.06;100.00;162671.75;5010874;28;20106;-55
2022/04/06 10:42:51;;;;;;;21.55;10.45;;;;;;;8.04;100.00;162666.34;5010011;28;20602;-55
2022/04/06 10:45:29;;;;;;;16.05;10.55;;;;;;;8.05;100.00;162669.03;5011818;28;20054;-55
2022/04/06 10:48:20;;;;;;;15.95;10.85;;;;;;;8.08;100.00;162678.47;5009949;28;20042;-55
2022/04/06 10:50:47;;;;;;;21.50;11.73;;;;;;;8.09;100.00;162681.19;5011473;28;20018;-55
2022/04/06 10:53:18;;;;;;;23.02;11.88;;;;;;;8.11;100.00;162685.19;5009770;28;20414;-55
2022/04/06 10:55:57;;;;;;;17.25;10.25;;;;;;;8.06;100.00;162671.75;5011353;28;20038;-55
2022/04/06 10:58:29;;;;;;;19.20;11.30;;;;;;;8.07;100.00;162674.44;5010386;28;20516;-55
2022/04/06 11:01:15;;;;;;;17.25;11.38;;;;;;;8.09;100.00;162679.81;5009899;28;20049;-55
2022/04/06 11:03:44;;;;;;;22.02;13.07;;;;;;;8.08;100.00;162677.09;5011273;28;20076;-55
2022/04/06 11:06:09;;;;;;;20.63;11.20;;;;;;;8.08;100.00;162677.09;5010021;28;20080;-55
2022/04/06 11:11:46;;;;;;;18.33;11.32;;;;;;;8.06;100.00;162673.06;5009635;28;20112;-55
2022/04/06 11:14:13;;;;;;;15.55;10.35;;;;;;;8.05;100.00;162669.03;5011109;28;20403;-55
2022/04/06 11:16:43;;;;;;;10.77;9.68;;;;;;;8.08;100.00;162678.47;5010087;28;20100;-55
2022/04/06 11:19:08;;;;;;;13.48;9.95;;;;;;;8.04;100.00;162667.66;5011259;28;20049;-55
2022/04/06 11:21:34;;;;;;;14.02;10.10;;;;;;;8.05;100.00;162669.03;5009621;28;20041;-55